Time;durP1;ratioP1;P1;durP2;ratioP2;P2;SDS_P1;SDS_P2;PMS_P1;PMS_P2;Temp;Humidity;BMP_temperature;BMP_pressure;BME280_temperature;BME280_humidity;BME280_pressure;Samples;Min_cycle;Max_cycle;Signal;HPM_P1;HPM_P2
2022/06/03 00:01:48;;;;;;;9.95;5.68;;;;;;;;;;5127256;27;20040;-72
2022/06/03 00:04:20;;;;;;;10.25;6.38;;;;;;;;;;5120236;27;20053;-72
2022/06/03 00:06:59;;;;;;;10.00;5.95;;;;;;;;;;5116668;27;20075;-71
2022/06/03 00:09:50;;;;;;;13.25;6.97;;;;;;;;;;5110101;28;20096;-72
2022/06/03 00:12:19;;;;;;;9.60;6.28;;;;;;;;;;5104151;27;20092;-72
2022/06/03 00:14:48;;;;;;;9.63;6.10;;;;;;;;;;5115463;27;20469;-72
2022/06/03 00:17:33;;;;;;;11.82;6.97;;;;;;;;;;5109846;28;20509;-72
2022/06/03 00:20:18;;;;;;;12.75;7.40;;;;;;;;;;5120693;27;20478;-72
2022/06/03 00:22:44;;;;;;;;;;;;;;;;;;5114602;27;20069;-72
2022/06/03 00:25:30;;;;;;;11.00;7.55;;;;;;;;;;5126863;27;19938;-72
2022/06/03 00:27:56;;;;;;;10.23;6.75;;;;;;;;;;5103570;27;20039;-72
2022/06/03 00:30:41;;;;;;;11.20;7.38;;;;;;;;;;5115274;27;20115;-72
2022/06/03 00:33:10;;;;;;;13.38;7.82;;;;;;;;;;5098863;27;20375;-72
2022/06/03 00:35:43;;;;;;;13.32;8.80;;;;;;;;;;5104421;28;20130;-72
2022/06/03 00:38:18;;;;;;;13.82;8.23;;;;;;;;;;5123888;27;20514;-72
2022/06/03 00:40:54;;;;;;;12.05;7.97;;;;;;;;;;5113763;27;20074;-71
2022/06/03 00:43:38;;;;;;;10.82;7.63;;;;;;;;;;5122314;27;20134;-72
2022/06/03 00:46:08;;;;;;;12.50;8.02;;;;;;;;;;5124300;27;20047;-71
2022/06/03 00:48:47;;;;;;;12.48;8.25;;;;;;;;;;5110682;27;20448;-72
2022/06/03 00:51:49;;;;;;;12.85;7.95;;;;;;;;;;5117582;27;20454;-72
2022/06/03 00:54:34;;;;;;;14.65;8.57;;;;;;;;;;5014832;28;20125;-72
2022/06/03 00:57:03;;;;;;;12.40;7.72;;;;;;;;;;5115493;27;20074;-72
2022/06/03 00:59:29;;;;;;;11.50;7.72;;;;;;;;;;5121006;27;20047;-72
2022/06/03 01:02:15;;;;;;;11.50;7.38;;;;;;;;;;5114462;27;20046;-72
2022/06/03 01:04:53;;;;;;;9.88;6.82;;;;;;;;;;5116272;27;20122;-72
2022/06/03 01:07:22;;;;;;;10.50;7.28;;;;;;;;;;5101674;28;20134;-72
2022/06/03 01:09:52;;;;;;;10.07;7.05;;;;;;;;;;5124591;27;20092;-72
2022/06/03 01:12:19;;;;;;;11.18;7.63;;;;;;;;;;5112714;27;20047;-72
2022/06/03 01:15:00;;;;;;;11.88;6.97;;;;;;;;;;5105017;28;20043;-72
2022/06/03 01:17:32;;;;;;;9.90;6.78;;;;;;;;;;5105280;27;20035;-72
2022/06/03 01:20:01;;;;;;;11.98;7.60;;;;;;;;;;5096125;27;20028;-72
2022/06/03 01:22:27;;;;;;;11.43;8.35;;;;;;;;;;5123476;27;20119;-72
2022/06/03 01:25:00;;;;;;;12.00;8.23;;;;;;;;;;5118848;27;20508;-72
2022/06/03 01:27:35;;;;;;;11.98;8.27;;;;;;;;;;5114511;27;20031;-72
2022/06/03 01:30:20;;;;;;;12.70;8.65;;;;;;;;;;5125157;27;20084;-72
2022/06/03 01:32:46;;;;;;;;;;;;;;;;;;5102287;27;20045;-72
2022/06/03 01:35:51;;;;;;;12.98;8.55;;;;;;;;;;5115098;27;19920;-72
2022/06/03 01:38:36;;;;;;;12.15;8.73;;;;;;;;;;4997034;28;20485;-72
2022/06/03 01:41:14;;;;;;;12.40;8.75;;;;;;;;;;4997260;28;20049;-72
2022/06/03 01:43:47;;;;;;;13.65;8.38;;;;;;;;;;5086907;27;20410;-72
2022/06/03 01:46:24;;;;;;;13.57;9.40;;;;;;;;;;5108058;28;20039;-72
2022/06/03 01:48:57;;;;;;;13.23;8.10;;;;;;;;;;5121453;27;20126;-72
2022/06/03 01:51:42;;;;;;;15.02;9.65;;;;;;;;;;5112124;27;20062;-71
2022/06/03 01:54:08;;;;;;;;;;;;;;;;;;5121470;27;20038;-72
2022/06/03 01:56:53;;;;;;;12.75;7.80;;;;;;;;;;5121029;27;20379;-71
2022/06/03 01:59:29;;;;;;;14.10;8.77;;;;;;;;;;5110893;27;20047;-71
2022/06/03 02:02:13;;;;;;;14.07;9.07;;;;;;;;;;5115234;27;20170;-71
2022/06/03 02:04:54;;;;;;;14.30;9.70;;;;;;;;;;5114983;27;20040;-72
2022/06/03 02:07:45;;;;;;;12.68;8.75;;;;;;;;;;5124609;27;20113;-71
2022/06/03 02:10:32;;;;;;;13.32;8.82;;;;;;;;;;5118428;27;20354;-72
2022/06/03 02:13:01;;;;;;;11.85;8.35;;;;;;;;;;5111625;27;20517;-72
2022/06/03 02:15:28;;;;;;;20.17;10.20;;;;;;;;;;5113096;27;20249;-72
2022/06/03 02:17:57;;;;;;;13.55;9.32;;;;;;;;;;5119438;27;20038;-72
2022/06/03 02:20:30;;;;;;;14.77;10.18;;;;;;;;;;5121759;27;20035;-72
2022/06/03 02:23:15;;;;;;;12.45;9.23;;;;;;;;;;5111794;27;20511;-71
2022/06/03 02:25:47;;;;;;;13.90;10.10;;;;;;;;;;5119703;27;20043;-72
2022/06/03 02:28:23;;;;;;;12.48;9.25;;;;;;;;;;5121208;27;20047;-71
2022/06/03 02:31:09;;;;;;;12.55;9.40;;;;;;;;;;5094781;28;20376;-72
2022/06/03 02:33:42;;;;;;;12.25;9.05;;;;;;;;;;5068221;27;20046;-71
2022/06/03 02:36:26;;;;;;;14.13;9.55;;;;;;;;;;5121249;27;20035;-71
2022/06/03 02:39:34;;;;;;;13.30;8.77;;;;;;;;;;5111643;27;20031;-72
2022/06/03 02:42:00;;;;;;;12.82;9.68;;;;;;;;;;5084564;28;20047;-71
2022/06/03 02:44:58;;;;;;;12.73;9.70;;;;;;;;;;5124672;27;20046;-72
2022/06/03 02:47:31;;;;;;;14.63;9.45;;;;;;;;;;5061966;28;20532;-71
2022/06/03 02:50:11;;;;;;;13.48;9.35;;;;;;;;;;5096830;28;20074;-72
2022/06/03 02:52:56;;;;;;;14.43;9.70;;;;;;;;;;5124343;28;20596;-71
2022/06/03 02:55:23;;;;;;;14.00;9.88;;;;;;;;;;5117406;28;20047;-71
2022/06/03 02:57:52;;;;;;;14.85;10.00;;;;;;;;;;5097065;28;20051;-71
2022/06/03 03:00:20;;;;;;;13.45;9.90;;;;;;;;;;5123598;28;20234;-71
2022/06/03 03:03:10;;;;;;;12.88;9.93;;;;;;;;;;5109978;28;20088;-71
2022/06/03 03:05:48;;;;;;;13.73;10.10;;;;;;;;;;5120656;28;20046;-71
2022/06/03 03:08:33;;;;;;;14.52;9.88;;;;;;;;;;5110868;28;20116;-71
2022/06/03 03:11:05;;;;;;;14.57;10.43;;;;;;;;;;5120193;27;20114;-71
2022/06/03 03:13:53;;;;;;;12.27;9.77;;;;;;;;;;5108472;27;20107;-71
2022/06/03 03:16:20;;;;;;;14.60;11.23;;;;;;;;;;5127428;27;20043;-71
2022/06/03 03:19:07;;;;;;;15.77;10.50;;;;;;;;;;5119686;27;20035;-71
2022/06/03 03:21:40;;;;;;;14.50;10.07;;;;;;;;;;5116540;27;20082;-71
2022/06/03 03:24:06;;;;;;;16.55;10.65;;;;;;;;;;5127953;27;20134;-71
2022/06/03 03:26:42;;;;;;;14.50;10.82;;;;;;;;;;5111915;28;20494;-71
2022/06/03 03:29:25;;;;;;;14.85;10.57;;;;;;;;;;5124254;27;20104;-71
2022/06/03 03:31:51;;;;;;;14.88;10.85;;;;;;;;;;5114903;27;20494;-71
2022/06/03 03:34:21;;;;;;;14.98;10.73;;;;;;;;;;5124979;27;20039;-71
2022/06/03 03:37:05;;;;;;;15.80;10.75;;;;;;;;;;5122245;27;20039;-71
2022/06/03 03:39:40;;;;;;;17.33;10.93;;;;;;;;;;5115026;27;20031;-71
2022/06/03 03:42:26;;;;;;;13.38;10.43;;;;;;;;;;5108324;28;20048;-71
2022/06/03 03:45:11;;;;;;;16.50;11.73;;;;;;;;;;5124029;27;20496;-71
2022/06/03 03:47:56;;;;;;;14.00;10.60;;;;;;;;;;5115095;27;20047;-71
2022/06/03 03:50:41;;;;;;;14.52;11.23;;;;;;;;;;5105114;28;20530;-71
2022/06/03 03:53:14;;;;;;;15.80;11.80;;;;;;;;;;5126885;27;20118;-71
2022/06/03 03:55:55;;;;;;;17.00;11.95;;;;;;;;;;5077658;28;20212;-71
2022/06/03 03:58:21;;;;;;;17.13;11.13;;;;;;;;;;5121026;27;20038;-71
2022/06/03 04:00:54;;;;;;;14.70;11.13;;;;;;;;;;5116608;27;20039;-71
2022/06/03 04:03:39;;;;;;;19.58;12.05;;;;;;;;;;5127538;27;20506;-71
2022/06/03 04:06:17;;;;;;;16.33;11.95;;;;;;;;;;5103138;27;20409;-71
2022/06/03 04:08:55;;;;;;;16.23;11.18;;;;;;;;;;5098679;28;20083;-71
2022/06/03 04:11:39;;;;;;;19.35;11.65;;;;;;;;;;5115034;27;20043;-71
2022/06/03 04:14:25;;;;;;;15.17;11.40;;;;;;;;;;5120630;27;20039;-71
2022/06/03 04:17:10;;;;;;;17.77;11.63;;;;;;;;;;5114016;27;20468;-71
2022/06/03 04:19:39;;;;;;;15.73;11.98;;;;;;;;;;5123455;27;20067;-71
2022/06/03 04:22:05;;;;;;;14.85;10.60;;;;;;;;;;5120569;27;20051;-71
2022/06/03 04:24:54;;;;;;;14.93;11.13;;;;;;;;;;5114598;27;20044;-71
2022/06/03 04:27:21;;;;;;;17.05;11.73;;;;;;;;;;5101656;27;20039;-71
2022/06/03 04:29:56;;;;;;;16.38;11.05;;;;;;;;;;5120501;27;20762;-71
2022/06/03 04:32:37;;;;;;;17.00;11.98;;;;;;;;;;5108244;27;20039;-71
2022/06/03 04:35:09;;;;;;;16.98;11.82;;;;;;;;;;5099063;27;20038;-71
2022/06/03 04:37:45;;;;;;;15.95;11.65;;;;;;;;;;5120801;27;20078;-71
2022/06/03 04:40:14;;;;;;;16.83;11.02;;;;;;;;;;5125074;27;20046;-71
2022/06/03 04:42:53;;;;;;;16.13;10.98;;;;;;;;;;5113447;27;20031;-71
2022/06/03 04:45:33;;;;;;;17.48;11.85;;;;;;;;;;5122187;27;20043;-71
2022/06/03 04:48:18;;;;;;;17.17;11.07;;;;;;;;;;5123698;27;20091;-71
2022/06/03 04:51:03;;;;;;;18.20;11.82;;;;;;;;;;5097419;27;20081;-71
2022/06/03 04:53:48;;;;;;;18.58;11.95;;;;;;;;;;5119337;27;20050;-71
2022/06/03 04:56:19;;;;;;;;;;;;;;;;;;5126799;27;20078;-71
2022/06/03 04:59:04;;;;;;;15.38;10.27;;;;;;;;;;5093078;28;19915;-71
2022/06/03 05:01:30;;;;;;;;;;;;;;;;;;5122375;27;20100;-71
2022/06/03 05:04:08;;;;;;;17.40;11.07;;;;;;;;;;5113934;27;20010;-71
2022/06/03 05:07:04;;;;;;;16.48;10.85;;;;;;;;;;5082683;27;20092;-71
2022/06/03 05:09:31;;;;;;;18.38;11.55;;;;;;;;;;5099354;28;20046;-71
2022/06/03 05:12:03;;;;;;;17.83;11.27;;;;;;;;;;5108535;27;20118;-72
2022/06/03 05:14:48;;;;;;;18.02;11.38;;;;;;;;;;5097786;27;20046;-71
2022/06/03 05:17:29;;;;;;;13.77;10.25;;;;;;;;;;5100720;28;20036;-71
2022/06/03 05:20:01;;;;;;;18.27;11.88;;;;;;;;;;5125891;27;20039;-72
2022/06/03 05:22:46;;;;;;;17.13;11.52;;;;;;;;;;5115689;27;20096;-71
2022/06/03 05:25:18;;;;;;;17.02;11.88;;;;;;;;;;5099366;28;20071;-72
2022/06/03 05:28:03;;;;;;;16.40;11.88;;;;;;;;;;5125506;27;20039;-72
2022/06/03 05:30:48;;;;;;;16.83;11.18;;;;;;;;;;5114063;27;20419;-71
2022/06/03 05:33:14;;;;;;;;;;;;;;;;;;5106432;27;20526;-72
2022/06/03 05:35:59;;;;;;;16.17;10.20;;;;;;;;;;5111955;27;19916;-71
2022/06/03 05:38:25;;;;;;;17.00;11.50;;;;;;;;;;5103579;28;20035;-71
2022/06/03 05:41:01;;;;;;;14.15;10.02;;;;;;;;;;5120927;27;20116;-71
2022/06/03 05:43:46;;;;;;;16.67;11.60;;;;;;;;;;5112571;27;20093;-71
2022/06/03 05:46:12;;;;;;;;;;;;;;;;;;5121727;27;20134;-71
2022/06/03 05:48:44;;;;;;;20.15;10.98;;;;;;;;;;5120062;27;19923;-71
2022/06/03 05:51:19;;;;;;;14.98;10.43;;;;;;;;;;5112029;27;20043;-71
2022/06/03 05:54:02;;;;;;;14.13;9.63;;;;;;;;;;5097941;27;20042;-71
2022/06/03 05:56:47;;;;;;;13.57;9.45;;;;;;;;;;5117270;27;20146;-72
2022/06/03 05:59:22;;;;;;;16.08;9.60;;;;;;;;;;5125102;27;20079;-72
2022/06/03 06:01:58;;;;;;;13.38;8.60;;;;;;;;;;5114896;27;20251;-71
2022/06/03 06:04:27;;;;;;;14.75;8.77;;;;;;;;;;5116920;27;20043;-72
2022/06/03 06:06:56;;;;;;;13.18;9.13;;;;;;;;;;5108178;28;20487;-72
2022/06/03 06:09:41;;;;;;;14.13;10.18;;;;;;;;;;5096133;27;20509;-71
2022/06/03 06:12:20;;;;;;;11.13;7.82;;;;;;;;;;5117567;27;20040;-72
2022/06/03 06:14:50;;;;;;;12.50;8.13;;;;;;;;;;5124906;27;20092;-71
2022/06/03 06:17:35;;;;;;;13.57;7.95;;;;;;;;;;5112152;27;20043;-71
2022/06/03 06:20:21;;;;;;;10.80;7.10;;;;;;;;;;5117272;27;20062;-72
2022/06/03 06:22:57;;;;;;;12.45;7.03;;;;;;;;;;5105751;27;20043;-71
2022/06/03 06:25:34;;;;;;;12.00;7.10;;;;;;;;;;5098939;27;20512;-71
2022/06/03 06:28:05;;;;;;;10.52;6.78;;;;;;;;;;5099226;28;20100;-69
2022/06/03 06:30:50;;;;;;;11.23;6.18;;;;;;;;;;5124318;27;20045;-69
2022/06/03 06:33:22;;;;;;;9.43;6.25;;;;;;;;;;5114576;27;20047;-72
2022/06/03 06:35:52;;;;;;;10.68;6.18;;;;;;;;;;5116451;27;20099;-71
2022/06/03 06:38:21;;;;;;;10.57;5.60;;;;;;;;;;5123944;27;20513;-72
2022/06/03 06:40:47;;;;;;;9.18;6.10;;;;;;;;;;5111786;27;20411;-72
2022/06/03 06:43:31;;;;;;;10.13;6.32;;;;;;;;;;5120544;28;20529;-72
2022/06/03 06:46:04;;;;;;;9.38;5.97;;;;;;;;;;5114734;27;20402;-72
2022/06/03 06:48:34;;;;;;;9.40;5.13;;;;;;;;;;5107682;28;20035;-72
2022/06/03 06:51:10;;;;;;;8.52;5.40;;;;;;;;;;5114410;28;20092;-72
2022/06/03 06:53:48;;;;;;;9.43;5.63;;;;;;;;;;5112400;28;20032;-72
2022/06/03 06:56:27;;;;;;;11.43;5.47;;;;;;;;;;5123788;28;20045;-72
2022/06/03 06:59:12;;;;;;;9.88;5.80;;;;;;;;;;5116489;28;20502;-72
2022/06/03 07:01:40;;;;;;;7.60;4.97;;;;;;;;;;5116891;28;20539;-72
2022/06/03 07:04:12;;;;;;;7.35;4.25;;;;;;;;;;5109700;28;20032;-71
2022/06/03 07:06:48;;;;;;;8.93;4.75;;;;;;;;;;5109482;28;20055;-73
2022/06/03 07:09:25;;;;;;;7.63;4.25;;;;;;;;;;5091853;28;20066;-72
2022/06/03 07:11:55;;;;;;;9.82;4.05;;;;;;;;;;5125651;28;20425;-72
2022/06/03 07:14:32;;;;;;;7.22;3.67;;;;;;;;;;5092204;28;20035;-72
2022/06/03 07:20:06;;;;;;;6.35;3.58;;;;;;;;;;5122642;28;20046;-72
2022/06/03 07:22:39;;;;;;;7.90;3.55;;;;;;;;;;5115090;28;20124;-72
2022/06/03 07:25:08;;;;;;;6.03;3.05;;;;;;;;;;5115417;28;20043;-72
2022/06/03 07:27:44;;;;;;;7.15;3.00;;;;;;;;;;5123988;28;20448;-72
2022/06/03 07:30:29;;;;;;;6.35;3.10;;;;;;;;;;5112761;28;20039;-72
2022/06/03 07:32:55;;;;;;;;;;;;;;;;;;5098870;28;20104;-72
2022/06/03 07:35:40;;;;;;;8.93;3.63;;;;;;;;;;5123246;28;19919;-72
2022/06/03 07:38:15;;;;;;;6.00;3.10;;;;;;;;;;5098570;28;20118;-72
2022/06/03 07:40:54;;;;;;;5.75;3.00;;;;;;;;;;5116216;28;20043;-72
2022/06/03 07:43:41;;;;;;;5.95;3.08;;;;;;;;;;5106824;28;20444;-72
2022/06/03 07:46:20;;;;;;;5.90;3.17;;;;;;;;;;5114357;28;20114;-72
2022/06/03 07:48:47;;;;;;;5.00;2.83;;;;;;;;;;5114356;28;20058;-72
2022/06/03 07:51:16;;;;;;;6.63;3.63;;;;;;;;;;5125339;28;20040;-72
2022/06/03 07:53:57;;;;;;;6.75;2.85;;;;;;;;;;5113589;28;20031;-73
2022/06/03 07:56:26;;;;;;;6.88;2.97;;;;;;;;;;5118033;28;20047;-72
2022/06/03 07:58:53;;;;;;;5.63;2.80;;;;;;;;;;5127800;27;20043;-73
2022/06/03 08:01:24;;;;;;;6.75;2.67;;;;;;;;;;5085358;28;20526;-73
2022/06/03 08:03:51;;;;;;;6.90;2.88;;;;;;;;;;5115818;27;20046;-73
2022/06/03 08:06:24;;;;;;;8.48;3.45;;;;;;;;;;5123425;27;20075;-73
2022/06/03 08:11:41;;;;;;;6.38;3.20;;;;;;;;;;5102556;27;20043;-73
2022/06/03 08:14:08;;;;;;;8.05;3.00;;;;;;;;;;5102662;28;20474;-73
2022/06/03 08:16:36;;;;;;;7.53;3.15;;;;;;;;;;5125441;27;20035;-73
2022/06/03 08:19:15;;;;;;;6.07;3.45;;;;;;;;;;5113860;27;20035;-73
2022/06/03 08:21:47;;;;;;;5.57;3.38;;;;;;;;;;5121838;27;20488;-73
2022/06/03 08:24:16;;;;;;;6.40;3.25;;;;;;;;;;5106585;27;20115;-73
2022/06/03 08:26:44;;;;;;;6.15;3.53;;;;;;;;;;5113899;27;20043;-74
2022/06/03 08:29:28;;;;;;;6.10;3.58;;;;;;;;;;5125127;27;20104;-74
2022/06/03 08:31:55;;;;;;;8.77;4.43;;;;;;;;;;5121923;27;20559;-73
2022/06/03 08:34:32;;;;;;;7.18;3.67;;;;;;;;;;5097395;28;20550;-74
2022/06/03 08:36:59;;;;;;;5.28;3.20;;;;;;;;;;5099008;27;20035;-73
2022/06/03 08:39:27;;;;;;;7.70;3.33;;;;;;;;;;5121220;27;20046;-73
2022/06/03 08:41:56;;;;;;;5.97;3.17;;;;;;;;;;5123055;27;20088;-74
2022/06/03 08:44:34;;;;;;;7.25;3.72;;;;;;;;;;5113464;27;20122;-73
2022/06/03 08:47:06;;;;;;;5.97;3.17;;;;;;;;;;5123902;27;20432;-72
2022/06/03 08:49:45;;;;;;;5.93;3.30;;;;;;;;;;5121094;27;20469;-73
2022/06/03 08:52:12;;;;;;;7.60;3.75;;;;;;;;;;5096223;27;20046;-73
2022/06/03 08:54:41;;;;;;;6.05;3.60;;;;;;;;;;5125530;27;20032;-73
2022/06/03 08:57:13;;;;;;;5.60;3.13;;;;;;;;;;5118658;27;20490;-73
2022/06/03 08:59:42;;;;;;;7.70;3.78;;;;;;;;;;5115886;27;20078;-73
2022/06/03 09:02:14;;;;;;;6.28;2.80;;;;;;;;;;5108817;27;20057;-73
2022/06/03 09:04:45;;;;;;;6.25;3.60;;;;;;;;;;5116005;27;20471;-73
2022/06/03 09:07:30;;;;;;;5.90;3.70;;;;;;;;;;5118587;27;20052;-73
2022/06/03 09:10:12;;;;;;;6.03;3.30;;;;;;;;;;5124927;27;20151;-73
2022/06/03 09:13:07;;;;;;;7.05;3.88;;;;;;;;;;5116736;27;20035;-74
2022/06/03 09:15:33;;;;;;;;;;;;;;;;;;5089103;27;20167;-73
2022/06/03 09:18:03;;;;;;;7.07;4.05;;;;;;;;;;5110585;27;20334;-74
2022/06/03 09:20:48;;;;;;;7.65;4.10;;;;;;;;;;5105535;28;20039;-73
2022/06/03 09:23:16;;;;;;;5.78;3.72;;;;;;;;;;5122916;27;20042;-73
2022/06/03 09:25:48;;;;;;;7.97;3.75;;;;;;;;;;5112586;27;20043;-73
2022/06/03 09:28:40;;;;;;;7.05;3.80;;;;;;;;;;5106378;28;20372;-73
2022/06/03 09:31:08;;;;;;;7.20;4.00;;;;;;;;;;5118143;27;20529;-73
2022/06/03 09:33:36;;;;;;;8.05;4.63;;;;;;;;;;5112714;27;20043;-74
2022/06/03 09:36:05;;;;;;;5.63;3.35;;;;;;;;;;5123601;27;20118;-73
2022/06/03 09:38:39;;;;;;;6.28;3.72;;;;;;;;;;5118432;27;20035;-74
2022/06/03 09:41:05;;;;;;;5.43;3.10;;;;;;;;;;5112505;27;20371;-73
2022/06/03 09:43:36;;;;;;;5.78;3.30;;;;;;;;;;5112519;27;20566;-73
2022/06/03 09:46:04;;;;;;;6.95;3.20;;;;;;;;;;5121866;27;20125;-73
2022/06/03 09:48:31;;;;;;;7.13;3.42;;;;;;;;;;5119432;27;20047;-73
2022/06/03 09:51:00;;;;;;;6.68;3.40;;;;;;;;;;5096585;28;20036;-73
2022/06/03 09:53:30;;;;;;;5.82;3.00;;;;;;;;;;5125141;27;20039;-73
2022/06/03 09:55:59;;;;;;;5.15;3.00;;;;;;;;;;5116154;27;20114;-73
2022/06/03 09:58:29;;;;;;;5.40;2.97;;;;;;;;;;5116692;27;20042;-74
2022/06/03 10:00:56;;;;;;;5.07;3.15;;;;;;;;;;5124903;27;20043;-73
2022/06/03 10:03:22;;;;;;;4.35;2.50;;;;;;;;;;5108577;28;20402;-73
2022/06/03 10:05:50;;;;;;;4.85;3.00;;;;;;;;;;5108363;28;20644;-73
2022/06/03 10:08:19;;;;;;;5.35;2.92;;;;;;;;;;5119946;27;20063;-73
2022/06/03 10:13:33;;;;;;;;;;;;;;;;;;5101227;27;20075;-73
2022/06/03 10:16:00;;;;;;;6.53;2.80;;;;;;;;;;5117714;27;19923;-74
2022/06/03 10:18:36;;;;;;;5.03;3.03;;;;;;;;;;5122825;27;20077;-74
2022/06/03 10:21:05;;;;;;;4.90;3.00;;;;;;;;;;5094584;27;20043;-74
2022/06/03 10:23:35;;;;;;;6.03;2.80;;;;;;;;;;5120748;27;20050;-73
2022/06/03 10:26:01;;;;;;;4.93;2.60;;;;;;;;;;5120518;27;20247;-74
2022/06/03 10:28:34;;;;;;;5.90;3.47;;;;;;;;;;5095026;28;20088;-74
2022/06/03 10:31:04;;;;;;;4.70;3.00;;;;;;;;;;5100652;27;20397;-73
2022/06/03 10:33:30;;;;;;;5.97;2.85;;;;;;;;;;5102524;28;20032;-72
2022/06/03 10:35:58;;;;;;;4.32;2.65;;;;;;;;;;5121253;27;20062;-74
2022/06/03 10:38:27;;;;;;;5.47;2.67;;;;;;;;;;5094416;28;20035;-74
2022/06/03 10:40:54;;;;;;;5.93;2.83;;;;;;;;;;5123368;27;20506;-74
2022/06/03 10:43:21;;;;;;;6.50;3.25;;;;;;;;;;5100199;27;20042;-74
2022/06/03 10:46:07;;;;;;;5.50;3.30;;;;;;;;;;5114974;27;20424;-73
2022/06/03 10:48:34;;;;;;;6.57;3.33;;;;;;;;;;5124384;27;20399;-74
2022/06/03 11:01:06;;;;;;;6.43;3.15;;;;;;;;;;5114997;28;20040;-73
2022/06/03 11:02:39;;;;;;;4.47;2.47;;;;;;;;;;5093398;28;20044;-74
2022/06/03 11:05:13;;;;;;;3.88;2.30;;;;;;;;;;5107238;28;20047;-73
2022/06/03 11:07:39;;;;;;;5.35;2.70;;;;;;;;;;5105771;28;20749;-73
2022/06/03 11:10:15;;;;;;;4.70;2.42;;;;;;;;;;5110998;28;20122;-74
2022/06/03 11:12:44;;;;;;;5.05;2.70;;;;;;;;;;5120170;28;20043;-73
2022/06/03 11:15:36;;;;;;;5.05;2.67;;;;;;;;;;5102574;28;20071;-73
2022/06/03 11:18:23;;;;;;;7.20;2.35;;;;;;;;;;5111087;28;20035;-72
2022/06/03 11:20:50;;;;;;;4.50;2.92;;;;;;;;;;5100354;28;20051;-73
2022/06/03 11:23:17;;;;;;;5.80;3.03;;;;;;;;;;5104688;28;20130;-74
2022/06/03 11:25:49;;;;;;;6.88;3.45;;;;;;;;;;5111190;28;20414;-74
2022/06/03 11:28:29;;;;;;;6.55;3.75;;;;;;;;;;5121144;28;20050;-73
2022/06/03 11:30:59;;;;;;;5.00;2.58;;;;;;;;;;5120075;27;20460;-73
2022/06/03 11:33:26;;;;;;;3.55;2.35;;;;;;;;;;5097275;27;20038;-74
2022/06/03 11:35:55;;;;;;;5.60;2.40;;;;;;;;;;5127518;27;20048;-72
2022/06/03 11:38:32;;;;;;;4.55;2.75;;;;;;;;;;5120122;27;20039;-72
2022/06/03 11:41:01;;;;;;;3.97;2.53;;;;;;;;;;5117286;27;20371;-73
2022/06/03 11:43:35;;;;;;;4.45;2.22;;;;;;;;;;5127762;27;20520;-74
2022/06/03 11:46:06;;;;;;;3.38;2.22;;;;;;;;;;5109332;28;20051;-74
2022/06/03 11:48:32;;;;;;;3.33;2.50;;;;;;;;;;5122543;27;20113;-73
2022/06/03 11:51:00;;;;;;;5.65;2.50;;;;;;;;;;5115721;27;20515;-73
2022/06/03 11:53:29;;;;;;;3.53;2.35;;;;;;;;;;5127323;27;20050;-73
2022/06/03 11:56:00;;;;;;;4.53;2.38;;;;;;;;;;5118143;27;20039;-74
2022/06/03 11:58:45;;;;;;;4.57;2.22;;;;;;;;;;5118914;27;20122;-74
2022/06/03 12:01:18;;;;;;;5.05;2.40;;;;;;;;;;5127159;27;20052;-74
2022/06/03 12:03:51;;;;;;;4.60;2.28;;;;;;;;;;5117878;27;20440;-74
2022/06/03 12:06:17;;;;;;;3.30;2.20;;;;;;;;;;5119005;27;20051;-73
2022/06/03 12:08:46;;;;;;;3.85;2.30;;;;;;;;;;5109742;27;20405;-73
2022/06/03 12:14:26;;;;;;;5.72;2.70;;;;;;;;;;5117887;27;20043;-74
2022/06/03 12:16:58;;;;;;;5.55;2.47;;;;;;;;;;5127163;27;20397;-74
2022/06/03 12:19:35;;;;;;;2.58;2.03;;;;;;;;;;5117002;27;20074;-73
2022/06/03 12:22:20;;;;;;;3.75;2.08;;;;;;;;;;5119024;27;20054;-73
2022/06/03 12:24:47;;;;;;;4.55;2.30;;;;;;;;;;5109723;27;20036;-73
2022/06/03 12:27:19;;;;;;;5.65;2.47;;;;;;;;;;5116271;27;20039;-74
2022/06/03 12:29:55;;;;;;;4.45;2.28;;;;;;;;;;5102722;28;20036;-73
2022/06/03 12:32:25;;;;;;;5.35;2.45;;;;;;;;;;5126495;27;20043;-73
2022/06/03 12:34:51;;;;;;;4.78;2.30;;;;;;;;;;5098027;27;20114;-74
2022/06/03 12:37:29;;;;;;;4.40;2.40;;;;;;;;;;5121949;27;20089;-74
2022/06/03 12:39:57;;;;;;;4.00;2.28;;;;;;;;;;5123552;27;20042;-74
2022/06/03 12:42:45;;;;;;;4.55;2.38;;;;;;;;;;5113699;27;20061;-74
2022/06/03 12:45:13;;;;;;;5.43;2.55;;;;;;;;;;5120884;27;20051;-73
2022/06/03 12:47:42;;;;;;;3.72;2.30;;;;;;;;;;5122445;27;20051;-73
2022/06/03 12:50:08;;;;;;;3.20;2.40;;;;;;;;;;5096588;27;20064;-74
2022/06/03 12:52:37;;;;;;;3.90;2.25;;;;;;;;;;5125514;27;20292;-74
2022/06/03 12:55:06;;;;;;;5.13;2.80;;;;;;;;;;5118596;27;20069;-74
2022/06/03 12:57:46;;;;;;;4.25;2.20;;;;;;;;;;5116772;27;20043;-73
2022/06/03 13:00:16;;;;;;;6.88;2.70;;;;;;;;;;5102673;27;20036;-74
2022/06/03 13:02:59;;;;;;;4.75;2.08;;;;;;;;;;5117292;27;20035;-74
2022/06/03 13:05:27;;;;;;;6.22;2.50;;;;;;;;;;5117004;27;20510;-73
2022/06/03 13:08:02;;;;;;;3.70;2.08;;;;;;;;;;5126989;27;20086;-74
2022/06/03 13:10:30;;;;;;;5.68;1.95;;;;;;;;;;5099980;27;20035;-73
2022/06/03 13:13:17;;;;;;;3.40;1.80;;;;;;;;;;5119417;27;20035;-73
2022/06/03 13:15:44;;;;;;;7.00;2.50;;;;;;;;;;5108671;27;20035;-73
2022/06/03 13:18:13;;;;;;;4.13;2.30;;;;;;;;;;5113600;27;20031;-74
2022/06/03 13:21:16;;;;;;;3.40;1.92;;;;;;;;;;5103674;28;20089;-74
2022/06/03 13:23:44;;;;;;;3.58;1.92;;;;;;;;;;5107806;28;20538;-73
2022/06/03 13:26:27;;;;;;;5.03;2.40;;;;;;;;;;5111191;28;20040;-74
2022/06/03 13:28:59;;;;;;;3.65;2.22;;;;;;;;;;5123124;27;20043;-74
2022/06/03 13:31:26;;;;;;;3.85;2.00;;;;;;;;;;5096529;28;20046;-73
2022/06/03 13:34:08;;;;;;;5.35;2.00;;;;;;;;;;5127063;27;20119;-72
2022/06/03 13:36:53;;;;;;;4.10;1.90;;;;;;;;;;5093962;28;20471;-74
2022/06/03 13:39:25;;;;;;;4.63;2.00;;;;;;;;;;5127477;27;20581;-74
2022/06/03 13:44:39;;;;;;;4.28;2.60;;;;;;;;;;5114417;27;20051;-73
2022/06/03 13:47:10;;;;;;;3.28;2.20;;;;;;;;;;5092557;28;20031;-73
2022/06/03 13:49:36;;;;;;;3.90;2.10;;;;;;;;;;5093389;28;20039;-74
2022/06/03 13:52:05;;;;;;;4.63;2.10;;;;;;;;;;5118454;27;20035;-75
2022/06/03 13:54:37;;;;;;;4.85;1.90;;;;;;;;;;5100618;28;20047;-73
2022/06/03 13:57:06;;;;;;;3.10;1.70;;;;;;;;;;5111302;27;20467;-74
2022/06/03 13:59:34;;;;;;;3.80;2.08;;;;;;;;;;5130843;27;20041;-74
2022/06/03 14:02:01;;;;;;;5.22;2.10;;;;;;;;;;5121366;27;20047;-74
2022/06/03 14:04:31;;;;;;;5.70;2.45;;;;;;;;;;5123975;27;20039;-75
2022/06/03 14:07:02;;;;;;;3.70;1.90;;;;;;;;;;5129309;27;20030;-74
2022/06/03 14:09:31;;;;;;;3.78;2.10;;;;;;;;;;5110188;28;20092;-76
2022/06/03 14:12:11;;;;;;;3.70;2.17;;;;;;;;;;5103692;27;20383;-75
2022/06/03 14:14:49;;;;;;;3.15;1.70;;;;;;;;;;5113439;27;20118;-75
2022/06/03 14:17:28;;;;;;;4.05;1.75;;;;;;;;;;5078352;28;20445;-76
2022/06/03 14:20:13;;;;;;;5.22;2.00;;;;;;;;;;5121255;27;20039;-75
2022/06/03 14:22:39;;;;;;;;;;;;;;;;;;5130090;27;20082;-74
2022/06/03 14:25:15;;;;;;;2.78;1.65;;;;;;;;;;5115342;27;19915;-75
2022/06/03 14:28:01;;;;;;;4.03;1.73;;;;;;;;;;5102623;28;20048;-73
2022/06/03 14:30:30;;;;;;;2.58;1.70;;;;;;;;;;5110369;28;20483;-75
2022/06/03 14:32:58;;;;;;;2.47;1.63;;;;;;;;;;5109898;28;20043;-74
2022/06/03 14:35:34;;;;;;;4.28;1.70;;;;;;;;;;5102192;27;20169;-74
2022/06/03 14:38:01;;;;;;;4.75;1.90;;;;;;;;;;5130629;27;20491;-75
2022/06/03 14:40:29;;;;;;;5.30;1.92;;;;;;;;;;5128097;27;20091;-75
2022/06/03 14:42:56;;;;;;;3.83;1.60;;;;;;;;;;5109968;28;20600;-74
2022/06/03 14:45:25;;;;;;;4.45;1.67;;;;;;;;;;5092900;28;20085;-74
2022/06/03 14:47:53;;;;;;;4.18;1.75;;;;;;;;;;5122388;27;20042;-74
2022/06/03 14:50:25;;;;;;;4.07;1.90;;;;;;;;;;5093961;28;20046;-75
2022/06/03 14:53:23;;;;;;;4.38;1.80;;;;;;;;;;5112179;28;20033;-75
2022/06/03 14:56:16;;;;;;;4.88;1.80;;;;;;;;;;5064319;28;20047;-75
2022/06/03 14:58:47;;;;;;;4.22;1.67;;;;;;;;;;5075120;28;20089;-75
2022/06/03 15:01:40;;;;;;;3.55;1.50;;;;;;;;;;5085739;28;20054;-74
2022/06/03 15:04:08;;;;;;;3.85;1.60;;;;;;;;;;5097543;28;20040;-75
2022/06/03 15:07:01;;;;;;;3.08;1.60;;;;;;;;;;5115412;27;20097;-75
2022/06/03 15:09:27;;;;;;;3.17;1.45;;;;;;;;;;5109415;27;20059;-75
2022/06/03 15:12:01;;;;;;;4.35;1.52;;;;;;;;;;5122058;27;20044;-75
2022/06/03 15:14:28;;;;;;;3.00;1.48;;;;;;;;;;5127000;27;20039;-75
2022/06/03 15:17:02;;;;;;;3.20;1.50;;;;;;;;;;5127115;27;20045;-74
2022/06/03 15:19:37;;;;;;;4.30;1.58;;;;;;;;;;5111831;27;20596;-75
2022/06/03 15:22:18;;;;;;;4.43;1.63;;;;;;;;;;5110555;27;20395;-75
2022/06/03 15:24:53;;;;;;;6.00;1.50;;;;;;;;;;5120559;27;20095;-75
2022/06/03 15:27:19;;;;;;;;;;;;;;;;;;5115471;27;20422;-75
2022/06/03 15:29:45;;;;;;;3.88;1.45;;;;;;;;;;5127093;27;19920;-74
2022/06/03 15:32:12;;;;;;;2.83;1.23;;;;;;;;;;5104660;27;20036;-75
2022/06/03 15:34:38;;;;;;;3.55;1.45;;;;;;;;;;5109532;28;20467;-75
2022/06/03 15:37:04;;;;;;;2.45;1.40;;;;;;;;;;5103573;28;20391;-75
2022/06/03 15:39:35;;;;;;;2.97;1.38;;;;;;;;;;5123353;27;20107;-74
2022/06/03 15:42:03;;;;;;;3.20;1.30;;;;;;;;;;5123263;27;20039;-75
2022/06/03 15:44:39;;;;;;;1.80;1.30;;;;;;;;;;5101790;28;20121;-76
2022/06/03 15:47:09;;;;;;;4.63;1.60;;;;;;;;;;5092002;28;20078;-75